Time;durP1;ratioP1;P1;durP2;ratioP2;P2;SDS_P1;SDS_P2;PMS_P1;PMS_P2;Temp;Humidity;BMP_temperature;BMP_pressure;BME280_temperature;BME280_humidity;BME280_pressure;Samples;Min_cycle;Max_cycle;Signal;HPM_P1;HPM_P2
2021/06/01 00:00:18;;;;;;;13.40;7.75;;;;;;;12.02;70.34;101329.66;5049099;28;20063;-69
2021/06/01 00:02:45;;;;;;;14.07;6.93;;;;;;;12.08;70.34;101324.03;5027517;28;20056;-69
2021/06/01 00:05:13;;;;;;;10.50;6.70;;;;;;;12.06;70.61;101323.25;5045763;28;20107;-74
2021/06/01 00:07:40;;;;;;;10.93;6.88;;;;;;;12.02;71.09;101311.19;5028349;28;20063;-71
2021/06/01 00:10:08;;;;;;;12.25;6.88;;;;;;;11.91;71.28;101309.09;5042973;28;20148;-72
2021/06/01 00:12:36;;;;;;;11.18;6.70;;;;;;;11.90;71.57;101309.19;5041998;28;20145;-73
2021/06/01 00:15:05;;;;;;;13.52;6.95;;;;;;;11.83;72.16;101306.03;5028381;28;20523;-70
2021/06/01 00:17:33;;;;;;;11.05;6.88;;;;;;;11.83;72.63;101313.09;5047306;28;20070;-72
2021/06/01 00:20:00;;;;;;;10.35;7.00;;;;;;;11.91;73.03;101309.09;5044403;28;20132;-74
2021/06/01 00:22:27;;;;;;;13.73;7.85;;;;;;;11.80;73.38;101310.59;5048694;28;20502;-71
2021/06/01 00:24:54;;;;;;;9.13;6.57;;;;;;;11.64;73.65;101310.53;5047062;28;20127;-70
2021/06/01 00:27:21;;;;;;;13.02;8.02;;;;;;;11.54;74.13;101306.69;5048512;28;20136;-70
2021/06/01 00:29:49;;;;;;;12.82;7.88;;;;;;;11.55;74.81;101303.13;5025537;28;20720;-70
2021/06/01 00:32:16;;;;;;;11.63;7.03;;;;;;;11.48;74.93;101307.00;5048858;28;20061;-70
2021/06/01 00:34:43;;;;;;;14.90;8.50;;;;;;;11.40;75.62;101313.53;5045483;28;20051;-71
2021/06/01 00:37:10;;;;;;;16.27;7.80;;;;;;;11.34;75.23;101302.44;5016764;28;20045;-72
2021/06/01 00:39:38;;;;;;;13.70;7.82;;;;;;;11.43;75.73;101303.75;5014029;28;20484;-72
2021/06/01 00:42:05;;;;;;;15.85;7.40;;;;;;;11.43;75.79;101304.59;5016384;28;20502;-71
2021/06/01 00:44:32;;;;;;;13.80;6.65;;;;;;;11.44;75.93;101295.78;5047473;28;20048;-70
2021/06/01 00:46:59;;;;;;;15.15;7.13;;;;;;;11.47;75.86;101297.38;5048096;28;20060;-71
2021/06/01 00:49:27;;;;;;;15.05;7.18;;;;;;;11.42;76.26;101294.97;5050317;28;20247;-69
2021/06/01 00:51:54;;;;;;;15.25;7.60;;;;;;;11.55;76.53;101300.47;5052028;28;20127;-71
2021/06/01 00:54:21;;;;;;;10.18;6.65;;;;;;;11.73;75.98;101301.28;5047049;28;20055;-71
2021/06/01 00:56:48;;;;;;;11.05;7.25;;;;;;;11.73;76.26;101298.66;5054067;28;20456;-70
2021/06/01 00:59:15;;;;;;;16.67;8.38;;;;;;;11.68;76.42;101296.25;5037073;28;20136;-73
2021/06/01 01:01:42;;;;;;;11.60;7.00;;;;;;;11.58;77.14;101295.06;5047505;28;20052;-71
2021/06/01 01:04:10;;;;;;;13.98;8.15;;;;;;;11.48;77.83;101301.72;5045690;28;20091;-69
2021/06/01 01:06:57;;;;;;;13.30;7.78;;;;;;;11.37;78.27;101295.22;5040544;28;20064;-71
2021/06/01 01:09:27;;;;;;;11.98;7.45;;;;;;;11.22;78.79;101293.38;5032399;28;20053;-69
2021/06/01 01:12:07;;;;;;;12.73;7.72;;;;;;;11.14;79.05;101300.81;5046396;28;20056;-73
2021/06/01 01:14:36;;;;;;;10.73;7.47;;;;;;;11.10;79.86;101301.91;5030049;28;20582;-71
2021/06/01 01:17:07;;;;;;;13.77;8.18;;;;;;;11.11;79.94;101300.97;5032714;28;20442;-72
2021/06/01 01:19:51;;;;;;;12.70;6.57;;;;;;;11.21;79.41;101293.44;5033542;28;20061;-72
2021/06/01 01:22:18;;;;;;;13.75;8.15;;;;;;;11.11;79.81;101296.53;5012152;28;20060;-72
2021/06/01 01:24:51;;;;;;;13.43;7.30;;;;;;;11.03;80.09;101296.09;5026165;28;20486;-71
2021/06/01 01:27:26;;;;;;;14.20;8.13;;;;;;;11.04;80.88;101291.69;5049704;28;20051;-72
2021/06/01 01:29:54;;;;;;;12.10;7.78;;;;;;;11.07;80.86;101292.34;5049910;28;20426;-72
2021/06/01 01:32:25;;;;;;;13.15;7.85;;;;;;;11.07;80.67;101302.03;5037426;28;20075;-71
2021/06/01 01:34:54;;;;;;;14.25;8.00;;;;;;;11.05;80.92;101296.00;5035571;28;20132;-70
2021/06/01 01:37:22;;;;;;;13.40;7.63;;;;;;;11.19;81.02;101298.78;5020138;28;20049;-71
2021/06/01 01:39:54;;;;;;;18.48;8.60;;;;;;;11.23;80.81;101297.72;5041901;28;20056;-75
2021/06/01 01:42:21;;;;;;;11.90;7.45;;;;;;;11.27;80.60;101294.00;5032630;28;20052;-74
2021/06/01 01:44:53;;;;;;;10.95;7.50;;;;;;;11.39;80.32;101298.66;5027646;28;20348;-71
2021/06/01 01:50:03;;;;;;;27.30;8.35;;;;;;;11.32;80.92;101296.41;5054330;28;20120;-71
2021/06/01 01:52:34;;;;;;;18.08;9.02;;;;;;;11.28;81.00;101295.69;5050516;28;20053;-70
2021/06/01 01:55:03;;;;;;;16.85;7.82;;;;;;;11.36;80.85;101288.25;5038297;28;20053;-70
2021/06/01 01:57:31;;;;;;;16.05;8.15;;;;;;;11.16;81.43;101283.97;5028458;28;20092;-74
2021/06/01 01:59:58;;;;;;;15.32;8.85;;;;;;;11.09;81.91;101281.75;5031561;28;20110;-72
2021/06/01 02:02:25;;;;;;;14.07;7.50;;;;;;;11.01;81.91;101271.59;5055040;28;20136;-71
2021/06/01 02:04:53;;;;;;;14.85;8.93;;;;;;;10.93;82.65;101272.91;5024512;28;20045;-70
2021/06/01 02:07:20;;;;;;;11.48;7.05;;;;;;;10.87;83.13;101269.66;5062731;28;20084;-74
2021/06/01 02:09:48;;;;;;;12.00;7.85;;;;;;;10.82;82.95;101269.03;5040353;28;20044;-71
2021/06/01 02:12:15;;;;;;;18.75;8.57;;;;;;;10.81;83.42;101269.13;5020844;28;20212;-74
2021/06/01 02:14:42;;;;;;;13.90;8.27;;;;;;;10.92;83.65;101266.78;5039070;28;20443;-72
2021/06/01 02:17:09;;;;;;;9.85;7.60;;;;;;;11.13;83.08;101267.50;5051577;28;20653;-72
2021/06/01 02:19:37;;;;;;;11.70;7.68;;;;;;;10.95;83.38;101263.16;5055572;28;20044;-71
2021/06/01 02:24:53;;;;;;;13.38;8.50;;;;;;;10.74;84.07;101268.56;5039121;28;20567;-74
2021/06/01 02:27:50;;;;;;;17.20;8.75;;;;;;;10.84;84.48;101272.44;5021894;28;20579;-71
2021/06/01 02:30:20;;;;;;;;;;;;;;;10.86;84.63;101267.09;5047693;28;20059;-72
2021/06/01 02:32:52;;;;;;;15.65;7.68;;;;;;;10.87;85.00;101267.03;5046846;28;20012;-71
2021/06/01 02:35:37;;;;;;;11.77;7.75;;;;;;;10.95;84.48;101269.28;5049654;28;20064;-70
2021/06/01 02:38:08;;;;;;;10.80;7.60;;;;;;;10.89;84.53;101270.41;5022614;28;20414;-70
2021/06/01 02:40:38;;;;;;;12.88;7.55;;;;;;;10.94;84.02;101278.09;5038393;28;20462;-71
2021/06/01 02:43:07;;;;;;;15.45;8.70;;;;;;;11.04;83.73;101276.72;5053303;28;20099;-71
2021/06/01 02:45:37;;;;;;;12.60;8.15;;;;;;;11.07;83.71;101275.69;5033876;28;20052;-70
2021/06/01 02:48:05;;;;;;;12.98;8.35;;;;;;;11.11;83.47;101275.47;5051267;28;20188;-71
2021/06/01 02:50:33;;;;;;;14.65;8.77;;;;;;;11.09;83.53;101258.88;5030716;28;20060;-73
2021/06/01 02:53:01;;;;;;;11.48;8.00;;;;;;;11.07;83.75;101255.47;5050070;28;20068;-72
2021/06/01 02:55:29;;;;;;;14.45;8.25;;;;;;;11.13;83.87;101260.44;5046615;28;20079;-72
2021/06/01 02:57:56;;;;;;;15.55;8.48;;;;;;;11.21;83.47;101254.75;5051217;28;20048;-72
2021/06/01 03:00:25;;;;;;;18.83;9.18;;;;;;;11.10;83.85;101252.69;5035175;28;20560;-70
2021/06/01 03:02:53;;;;;;;26.40;8.45;;;;;;;11.01;84.05;101255.78;5049971;28;20083;-71
2021/06/01 03:05:21;;;;;;;12.32;8.35;;;;;;;11.04;84.35;101253.00;5046434;28;20078;-71
2021/06/01 03:07:52;;;;;;;15.43;9.25;;;;;;;10.96;84.21;101255.16;5032007;28;20056;-69
2021/06/01 03:10:20;;;;;;;10.82;7.68;;;;;;;10.90;84.91;101256.34;5032912;28;20051;-71
2021/06/01 03:12:53;;;;;;;19.08;8.40;;;;;;;11.11;84.53;101250.91;5053949;28;20207;-72
2021/06/01 03:15:22;;;;;;;13.23;8.43;;;;;;;11.20;83.54;101246.94;5053125;28;20135;-71
2021/06/01 03:17:49;;;;;;;18.48;8.93;;;;;;;11.10;84.11;101247.41;5036175;28;20134;-70
2021/06/01 03:20:17;;;;;;;12.82;8.63;;;;;;;11.01;84.94;101250.50;5037732;28;20057;-70
2021/06/01 03:22:45;;;;;;;15.55;8.43;;;;;;;10.96;85.46;101249.06;5051792;28;20056;-75
2021/06/01 03:25:14;;;;;;;14.07;8.85;;;;;;;10.95;85.52;101256.09;5049666;28;20072;-72
2021/06/01 03:27:41;;;;;;;16.48;8.70;;;;;;;11.02;85.00;101252.22;5033922;28;20063;-72
2021/06/01 03:30:10;;;;;;;15.38;8.95;;;;;;;11.06;85.12;101255.56;5050956;28;20121;-70
2021/06/01 03:32:38;;;;;;;12.95;8.65;;;;;;;11.12;84.93;101248.22;5051460;28;20052;-70
2021/06/01 03:35:06;;;;;;;15.07;8.57;;;;;;;11.23;84.95;101250.28;5048915;28;20111;-72
2021/06/01 03:37:33;;;;;;;14.48;8.10;;;;;;;11.34;84.54;101250.56;5027551;28;20043;-72
2021/06/01 03:40:00;;;;;;;13.68;8.45;;;;;;;11.39;84.50;101248.56;5025563;28;20144;-72
2021/06/01 03:42:28;;;;;;;16.65;9.02;;;;;;;11.47;84.05;101247.28;5046122;28;20060;-69
2021/06/01 03:44:55;;;;;;;14.02;8.68;;;;;;;11.59;83.72;101249.28;5048301;28;20068;-74
2021/06/01 03:47:22;;;;;;;17.65;8.77;;;;;;;11.73;83.53;101245.91;5049328;28;20051;-70
2021/06/01 03:49:49;;;;;;;17.80;9.55;;;;;;;11.88;82.37;101256.50;5032570;28;20041;-70
2021/06/01 03:52:17;;;;;;;16.17;8.90;;;;;;;12.07;81.73;101253.72;5052179;28;20049;-69
2021/06/01 03:54:44;;;;;;;15.35;9.38;;;;;;;12.46;79.70;101247.13;5046105;28;20060;-70
2021/06/01 03:57:11;;;;;;;15.38;9.98;;;;;;;12.66;79.04;101251.28;5035533;28;20056;-69
2021/06/01 03:59:39;;;;;;;13.38;8.68;;;;;;;12.72;79.61;101244.81;5049006;28;20049;-71
2021/06/01 04:02:07;;;;;;;10.93;7.93;;;;;;;12.91;79.34;101245.41;5050279;28;20053;-71
2021/06/01 04:04:35;;;;;;;16.42;8.70;;;;;;;13.16;77.37;101248.31;5027199;28;20143;-71
2021/06/01 04:07:04;;;;;;;16.73;8.27;;;;;;;13.28;77.06;101252.03;5049272;28;20292;-69
2021/06/01 04:09:31;;;;;;;12.98;8.93;;;;;;;13.43;76.07;101248.47;5046216;28;20098;-71
2021/06/01 04:11:58;;;;;;;16.58;8.80;;;;;;;13.64;75.23;101256.91;5048840;28;20532;-71
2021/06/01 04:14:27;;;;;;;18.38;9.68;;;;;;;13.88;74.16;101248.38;5059169;28;20116;-72
2021/06/01 04:16:55;;;;;;;18.90;8.98;;;;;;;13.95;73.65;101254.97;5058934;28;20136;-69
2021/06/01 04:19:23;;;;;;;16.63;8.68;;;;;;;14.10;73.86;101242.59;5032377;28;20061;-70
2021/06/01 04:21:52;;;;;;;17.02;9.30;;;;;;;14.37;72.56;101243.44;5044183;28;20049;-71
2021/06/01 04:24:20;;;;;;;11.98;8.75;;;;;;;14.41;72.00;101244.09;5041803;28;20063;-71
2021/06/01 04:26:47;;;;;;;16.38;10.18;;;;;;;14.53;71.72;101240.66;5048019;28;20098;-73
2021/06/01 04:29:14;;;;;;;16.65;9.55;;;;;;;14.79;71.05;101241.59;5027013;28;20056;-71
2021/06/01 04:31:42;;;;;;;12.52;8.80;;;;;;;15.03;69.98;101238.25;5030825;28;20063;-71
2021/06/01 04:34:10;;;;;;;15.30;8.70;;;;;;;15.22;69.06;101232.53;5049713;28;20053;-73
2021/06/01 04:36:37;;;;;;;19.70;9.00;;;;;;;15.37;69.03;101235.00;5048055;28;20146;-70
2021/06/01 04:39:04;;;;;;;17.60;8.80;;;;;;;15.37;68.86;101237.66;5049874;28;20431;-73
2021/06/01 04:41:31;;;;;;;19.15;10.10;;;;;;;15.52;68.30;101234.88;5040529;28;20531;-72
2021/06/01 04:43:59;;;;;;;12.85;9.05;;;;;;;15.52;68.06;101234.88;5044310;28;20537;-71
2021/06/01 04:46:26;;;;;;;14.52;8.45;;;;;;;15.53;68.06;101239.22;5049837;28;20140;-71
2021/06/01 04:48:53;;;;;;;12.18;8.95;;;;;;;15.72;67.78;101239.69;5034068;28;20041;-70
2021/06/01 04:51:21;;;;;;;15.25;9.02;;;;;;;15.88;67.37;101240.25;5031872;28;20057;-71
2021/06/01 04:53:49;;;;;;;13.73;8.57;;;;;;;15.93;67.28;101240.78;5034192;28;20091;-73
2021/06/01 04:56:17;;;;;;;17.52;8.10;;;;;;;16.20;65.96;101237.94;5048182;28;20063;-72
2021/06/01 04:58:44;;;;;;;15.02;9.52;;;;;;;16.40;65.71;101238.31;5044338;28;20429;-73
2021/06/01 05:01:11;;;;;;;14.23;9.25;;;;;;;16.68;63.98;101235.28;5028318;28;20080;-71
2021/06/01 05:03:39;;;;;;;18.42;9.90;;;;;;;16.85;63.23;101236.72;5047666;28;20044;-73
2021/06/01 05:06:06;;;;;;;12.38;8.32;;;;;;;17.10;62.98;101237.50;5032946;28;20052;-69
2021/06/01 05:08:34;;;;;;;14.10;8.43;;;;;;;17.25;62.00;101232.84;5029430;28;20072;-68
2021/06/01 05:11:03;;;;;;;16.48;8.75;;;;;;;17.29;61.37;101242.25;5026456;28;20621;-72
2021/06/01 05:13:31;;;;;;;14.63;9.00;;;;;;;17.17;60.83;101244.06;5033247;28;20122;-70
2021/06/01 05:15:58;;;;;;;16.25;8.98;;;;;;;17.17;60.84;101244.91;5044168;28;20190;-71
2021/06/01 05:18:25;;;;;;;15.85;9.20;;;;;;;17.38;60.38;101238.88;5031667;28;20052;-71
2021/06/01 05:21:05;;;;;;;21.70;9.85;;;;;;;17.59;59.77;101245.19;5036253;28;20464;-73
2021/06/01 05:23:33;;;;;;;19.15;9.60;;;;;;;17.79;59.26;101246.31;5047164;28;20181;-70
2021/06/01 05:26:00;;;;;;;12.43;8.40;;;;;;;17.81;58.49;101247.03;5028067;28;20505;-71
2021/06/01 05:28:27;;;;;;;14.65;9.10;;;;;;;17.96;58.61;101244.97;5051121;28;20293;-70
2021/06/01 05:33:46;;;;;;;14.32;8.70;;;;;;;18.48;56.74;101238.91;5054327;28;20056;-75
2021/06/01 05:36:13;;;;;;;16.60;10.13;;;;;;;18.73;56.38;101231.56;5041962;28;20056;-73
2021/06/01 05:38:40;;;;;;;15.85;9.32;;;;;;;18.90;55.47;101233.66;5056165;28;20051;-71
2021/06/01 05:41:07;;;;;;;23.10;9.85;;;;;;;19.20;54.21;101240.91;5029367;28;20045;-71
2021/06/01 05:43:35;;;;;;;16.02;9.15;;;;;;;19.06;54.83;101240.38;5050639;28;20079;-71
2021/06/01 05:46:02;;;;;;;15.32;9.15;;;;;;;19.46;53.54;101244.00;5040562;28;20136;-72
2021/06/01 05:48:30;;;;;;;21.33;9.10;;;;;;;20.05;52.15;101241.59;5045503;28;20472;-73
2021/06/01 05:50:57;;;;;;;18.88;10.15;;;;;;;20.13;51.78;101247.94;5043930;28;20064;-71
2021/06/01 05:53:25;;;;;;;23.80;9.90;;;;;;;20.42;50.76;101239.13;5016414;28;20059;-71
2021/06/01 05:55:52;;;;;;;18.95;9.68;;;;;;;20.60;50.47;101245.50;5041232;28;20080;-70
2021/06/01 05:58:21;;;;;;;22.63;10.35;;;;;;;20.80;50.26;101237.44;5043827;28;20072;-72
2021/06/01 06:00:48;;;;;;;16.50;10.50;;;;;;;20.72;49.61;101240.84;5025531;28;20214;-70
2021/06/01 06:03:16;;;;;;;21.42;9.93;;;;;;;20.93;49.38;101235.34;5025927;28;20053;-72
2021/06/01 06:05:44;;;;;;;18.38;9.70;;;;;;;20.92;49.31;101233.66;5046192;28;20475;-70
2021/06/01 06:08:15;;;;;;;19.65;10.75;;;;;;;21.15;48.91;101231.50;5030262;28;20045;-69
2021/06/01 06:10:44;;;;;;;17.27;10.32;;;;;;;21.20;48.70;101235.41;5038752;28;20147;-70
2021/06/01 06:13:41;;;;;;;18.63;9.77;;;;;;;21.47;47.89;101234.66;5039996;28;20063;-75
2021/06/01 06:16:17;;;;;;;18.25;10.32;;;;;;;21.91;47.21;101239.44;5047094;28;20444;-71
2021/06/01 06:18:52;;;;;;;16.63;10.50;;;;;;;21.99;46.55;101242.22;5035283;28;20144;-71
2021/06/01 06:21:20;;;;;;;18.95;9.82;;;;;;;22.47;45.75;101231.22;5033013;28;20078;-69
2021/06/01 06:23:47;;;;;;;23.65;10.98;;;;;;;22.87;44.41;101226.34;5046437;28;20148;-70
2021/06/01 06:26:14;;;;;;;18.77;9.57;;;;;;;23.28;43.18;101232.03;5046973;28;20518;-70
2021/06/01 06:28:41;;;;;;;18.05;9.23;;;;;;;23.25;43.50;101228.66;5047198;28;20148;-72
2021/06/01 06:31:08;;;;;;;17.77;9.10;;;;;;;24.57;40.83;101225.50;5046651;28;20056;-71
2021/06/01 06:33:36;;;;;;;15.43;8.95;;;;;;;25.68;37.59;101227.56;5043360;28;20348;-71
2021/06/01 06:36:03;;;;;;;16.23;8.25;;;;;;;25.56;37.74;101223.56;5049013;28;20202;-74
2021/06/01 06:38:30;;;;;;;18.98;8.57;;;;;;;25.30;38.20;101224.63;5051676;28;20087;-71
2021/06/01 06:41:12;;;;;;;19.80;7.63;;;;;;;24.86;39.59;101226.88;5052213;28;20080;-74
2021/06/01 06:43:52;;;;;;;17.58;9.85;;;;;;;25.71;37.61;101225.38;5049321;28;20095;-71
2021/06/01 06:46:25;;;;;;;17.10;8.27;;;;;;;26.84;36.10;101216.78;5036173;28;20059;-71
2021/06/01 06:48:53;;;;;;;16.73;8.88;;;;;;;26.30;37.04;101211.41;5034440;28;20391;-72
2021/06/01 06:51:22;;;;;;;14.70;7.45;;;;;;;26.25;37.23;101209.25;5050974;28;20160;-70
2021/06/01 06:53:53;;;;;;;17.13;7.60;;;;;;;26.26;36.88;101212.78;5047415;28;20063;-74
2021/06/01 06:56:23;;;;;;;16.00;7.90;;;;;;;26.49;36.54;101197.47;5031886;28;20148;-72
2021/06/01 06:58:51;;;;;;;10.38;7.03;;;;;;;26.62;37.10;101204.13;5051688;28;20052;-70
2021/06/01 07:01:18;;;;;;;16.02;8.10;;;;;;;26.21;37.18;101207.09;5035392;28;20053;-69
2021/06/01 07:03:45;;;;;;;19.52;7.40;;;;;;;26.10;37.74;101199.41;5036398;28;20059;-70
2021/06/01 07:06:17;;;;;;;21.15;7.22;;;;;;;25.52;38.94;101198.78;5054234;28;20083;-70
2021/06/01 07:08:44;;;;;;;14.98;7.03;;;;;;;26.84;36.83;101188.88;5056524;28;20540;-71
2021/06/01 07:11:11;;;;;;;18.10;6.95;;;;;;;28.19;34.24;101195.78;5044320;28;20135;-72
2021/06/01 07:13:38;;;;;;;13.60;6.72;;;;;;;29.22;32.49;101188.97;5049092;28;20045;-69
2021/06/01 07:16:05;;;;;;;10.52;6.50;;;;;;;29.97;31.24;101191.88;5053047;28;20053;-73
2021/06/01 07:18:36;;;;;;;13.13;6.28;;;;;;;29.76;31.17;101192.81;5054113;28;20147;-70
2021/06/01 07:21:04;;;;;;;14.80;6.90;;;;;;;30.38;29.96;101196.38;5048797;28;20078;-71
2021/06/01 07:23:31;;;;;;;15.25;7.55;;;;;;;29.89;29.96;101190.16;5020968;28;20084;-73
2021/06/01 07:25:59;;;;;;;12.32;6.20;;;;;;;29.95;30.51;101189.38;5045781;28;20132;-70
2021/06/01 07:28:26;;;;;;;10.10;5.90;;;;;;;29.76;30.22;101181.97;5047400;28;20049;-70
2021/06/01 07:30:53;;;;;;;8.68;5.57;;;;;;;29.14;30.67;101175.59;5035240;28;20080;-71
2021/06/01 07:33:20;;;;;;;17.02;5.50;;;;;;;30.62;28.76;101182.19;5031451;28;20053;-70
2021/06/01 07:35:48;;;;;;;15.00;5.65;;;;;;;29.74;29.97;101178.63;5047426;28;20056;-71
2021/06/01 07:38:15;;;;;;;14.25;5.38;;;;;;;29.18;31.20;101171.44;5055228;28;20049;-70
2021/06/01 07:40:42;;;;;;;13.48;5.53;;;;;;;29.62;30.37;101177.53;5034441;28;20130;-70
2021/06/01 07:43:09;;;;;;;16.40;6.43;;;;;;;29.64;30.29;101173.59;5047644;28;20150;-70
2021/06/01 07:45:36;;;;;;;11.63;5.28;;;;;;;31.13;27.94;101162.50;5034425;28;20364;-68
2021/06/01 07:48:04;;;;;;;12.20;5.40;;;;;;;31.78;27.15;101174.22;5047886;28;20083;-71
2021/06/01 07:50:31;;;;;;;12.07;5.13;;;;;;;32.22;26.57;101164.34;5014745;28;20584;-70
2021/06/01 07:52:58;;;;;;;13.13;6.28;;;;;;;32.51;25.84;101159.34;5050142;28;20051;-68
2021/06/01 07:55:25;;;;;;;10.82;4.95;;;;;;;32.75;25.00;101161.22;5032170;28;20524;-70
2021/06/01 07:57:54;;;;;;;9.18;5.22;;;;;;;32.76;24.55;101162.06;5055130;28;20448;-71
2021/06/01 08:00:22;;;;;;;8.55;4.45;;;;;;;32.81;24.22;101159.50;5051625;28;20093;-68
2021/06/01 08:02:50;;;;;;;6.90;4.15;;;;;;;33.08;24.30;101157.38;5034770;28;20116;-69
2021/06/01 08:05:20;;;;;;;10.15;4.85;;;;;;;33.19;24.14;101153.91;5053708;28;20079;-71
2021/06/01 08:07:48;;;;;;;12.25;5.10;;;;;;;32.95;24.14;101157.50;5017999;28;20049;-72
2021/06/01 08:10:16;;;;;;;11.32;4.30;;;;;;;33.11;23.67;101151.47;5052326;28;20513;-69
2021/06/01 08:12:44;;;;;;;11.77;4.82;;;;;;;33.02;23.70;101152.81;5032969;28;20049;-70
2021/06/01 08:15:13;;;;;;;9.15;3.80;;;;;;;34.04;22.13;101150.31;5047879;28;20416;-70
2021/06/01 08:17:40;;;;;;;8.65;3.85;;;;;;;34.19;21.55;101150.72;5046798;28;20052;-71
2021/06/01 08:20:15;;;;;;;9.38;4.55;;;;;;;33.34;22.19;101155.41;5047865;28;20049;-69
2021/06/01 08:22:42;;;;;;;;;;;;;;;31.88;24.13;101146.56;5050906;28;20443;-69
2021/06/01 08:25:11;;;;;;;5.75;3.92;;;;;;;31.94;24.58;101148.41;5055335;28;19925;-69
2021/06/01 08:27:38;;;;;;;12.05;4.68;;;;;;;32.11;24.61;101145.13;5034751;28;20510;-72
2021/06/01 08:30:07;;;;;;;7.60;3.95;;;;;;;31.26;24.96;101140.72;5031966;28;20476;-69
2021/06/01 08:32:34;;;;;;;9.60;3.65;;;;;;;30.25;26.25;101143.69;5047962;28;20183;-69
2021/06/01 08:35:01;;;;;;;5.78;3.53;;;;;;;29.50;26.46;101133.84;5050177;28;20135;-70
2021/06/01 08:37:28;;;;;;;8.88;3.10;;;;;;;29.11;27.52;101138.03;5046686;28;20136;-71
2021/06/01 08:39:56;;;;;;;9.60;3.53;;;;;;;28.55;28.33;101126.34;5047553;28;20131;-68
2021/06/01 08:42:23;;;;;;;7.00;3.83;;;;;;;28.06;29.43;101127.97;5046237;28;20131;-69
2021/06/01 08:44:50;;;;;;;7.85;3.70;;;;;;;27.83;29.16;101127.28;5047455;28;20576;-71
2021/06/01 08:47:19;;;;;;;7.53;3.95;;;;;;;27.07;29.89;101132.09;5047890;28;20067;-72
2021/06/01 08:49:49;;;;;;;17.23;4.22;;;;;;;26.19;31.32;101123.59;5026428;28;20045;-70
2021/06/01 08:52:16;;;;;;;10.07;3.90;;;;;;;25.64;32.70;101118.38;5029803;28;20089;-70
2021/06/01 08:54:45;;;;;;;9.45;3.40;;;;;;;26.42;31.77;101117.34;5047889;28;20127;-68
2021/06/01 08:57:12;;;;;;;7.43;3.80;;;;;;;25.75;32.46;101117.97;5044618;28;20593;-70
2021/06/01 08:59:40;;;;;;;6.00;3.53;;;;;;;26.25;32.43;101116.63;5049881;28;20049;-70
2021/06/01 09:02:08;;;;;;;10.32;4.13;;;;;;;25.38;33.28;101119.50;5049837;28;20053;-72
2021/06/01 09:04:58;;;;;;;11.52;4.35;;;;;;;25.32;34.39;101113.97;5049054;28;20071;-72
2021/06/01 09:10:33;;;;;;;8.98;3.97;;;;;;;25.40;34.04;101116.66;5048723;28;20545;-70
2021/06/01 09:13:09;;;;;;;7.03;4.20;;;;;;;25.46;32.56;101110.53;5046529;28;20056;-72
2021/06/01 09:21:13;;;;;;;10.40;3.70;;;;;;;26.93;30.05;101091.38;5042985;28;20056;-73
2021/06/01 09:23:52;;;;;;;10.85;3.78;;;;;;;26.76;29.41;101098.81;5032973;28;20076;-72
2021/06/01 09:26:49;;;;;;;6.60;3.58;;;;;;;27.04;29.90;101100.88;5042976;28;21051;-72
2021/06/01 09:29:17;;;;;;;12.52;4.05;;;;;;;27.68;28.46;101089.44;5041983;28;20599;-73
2021/06/01 09:31:44;;;;;;;12.57;4.93;;;;;;;27.24;29.10;101091.22;5043364;28;20063;-71
2021/06/01 09:34:22;;;;;;;8.40;4.05;;;;;;;26.49;29.83;101083.25;5045013;28;20201;-71
2021/06/01 09:36:50;;;;;;;7.57;3.83;;;;;;;26.62;29.75;101078.03;5041408;28;20140;-67
2021/06/01 09:39:23;;;;;;;5.43;3.88;;;;;;;27.14;29.45;101079.84;5045020;28;20429;-71
2021/06/01 09:41:50;;;;;;;13.73;4.43;;;;;;;27.25;28.51;101071.25;5040417;28;20077;-70
2021/06/01 09:44:18;;;;;;;10.25;3.53;;;;;;;26.71;28.91;101068.84;5030527;28;20052;-70
2021/06/01 09:46:45;;;;;;;7.05;3.55;;;;;;;26.14;29.91;101058.53;5026933;28;20064;-71
2021/06/01 09:49:13;;;;;;;9.57;3.58;;;;;;;25.59;30.23;101064.16;5045999;28;20501;-71
2021/06/01 09:51:45;;;;;;;12.63;3.83;;;;;;;26.70;28.42;101056.34;5049357;28;20074;-71
2021/06/01 09:54:28;;;;;;;5.18;3.60;;;;;;;27.24;28.08;101053.38;5031310;28;20064;-70
2021/06/01 09:56:56;;;;;;;9.52;3.20;;;;;;;27.22;28.01;101054.59;5048811;28;20500;-74
2021/06/01 09:59:23;;;;;;;6.22;3.95;;;;;;;26.72;29.18;101048.91;5048953;28;20049;-70
2021/06/01 10:01:50;;;;;;;6.88;4.25;;;;;;;27.34;29.03;101053.06;5047738;28;20075;-74
2021/06/01 10:04:28;;;;;;;10.35;3.47;;;;;;;27.45;27.10;101043.63;5046008;28;20156;-69
2021/06/01 10:06:55;;;;;;;3.45;2.55;;;;;;;27.41;24.60;101045.03;5030588;28;20053;-72
2021/06/01 10:09:22;;;;;;;6.95;2.30;;;;;;;27.16;24.64;101045.38;5050167;28;20048;-70
2021/06/01 10:11:57;;;;;;;4.13;2.25;;;;;;;27.27;23.96;101044.03;5049342;28;20044;-71
2021/06/01 10:14:25;;;;;;;6.88;2.70;;;;;;;26.66;25.35;101041.53;5054786;28;20061;-72
2021/06/01 10:16:53;;;;;;;5.97;2.55;;;;;;;26.09;26.39;101043.91;5032404;28;20128;-73
2021/06/01 10:19:20;;;;;;;4.18;2.33;;;;;;;25.96;26.29;101031.03;5053663;28;20720;-71
2021/06/01 10:21:53;;;;;;;13.23;3.05;;;;;;;26.14;25.28;101026.16;5048753;28;20503;-72
2021/06/01 10:24:21;;;;;;;8.18;2.40;;;;;;;26.70;24.30;101025.78;5046426;28;20081;-70
2021/06/01 10:26:49;;;;;;;6.35;2.60;;;;;;;27.30;23.60;101032.84;5054707;28;20165;-70
2021/06/01 10:29:16;;;;;;;12.18;2.40;;;;;;;26.67;24.81;101024.31;5029534;28;20491;-70
2021/06/01 10:31:46;;;;;;;4.55;2.53;;;;;;;26.47;24.71;101028.56;5050489;28;20147;-70
2021/06/01 10:34:16;;;;;;;8.10;2.55;;;;;;;27.54;24.08;101023.53;5033196;28;20056;-69
2021/06/01 10:43:02;;;;;;;7.65;3.00;;;;;;;26.20;26.01;101014.63;5032831;28;20861;-70
2021/06/01 10:53:13;;;;;;;5.68;2.63;;;;;;;26.44;25.97;101019.00;5054558;28;20065;-70
2021/06/01 10:56:00;;;;;;;10.23;3.35;;;;;;;25.47;27.57;101020.56;5057083;28;20067;-72
2021/06/01 10:58:39;;;;;;;4.65;2.97;;;;;;;25.52;28.20;101021.69;5052456;28;20483;-70
2021/06/01 11:04:10;;;;;;;5.38;3.50;;;;;;;26.67;27.62;101002.72;5044930;28;20099;-69
2021/06/01 11:06:54;;;;;;;7.68;3.30;;;;;;;27.07;26.96;101008.63;5030788;28;20434;-70
2021/06/01 11:09:33;;;;;;;6.03;3.17;;;;;;;27.15;27.39;101002.28;5043195;28;20053;-67
2021/06/01 11:12:24;;;;;;;5.93;3.05;;;;;;;26.54;27.32;101002.50;5047461;28;20077;-69
2021/06/01 11:14:56;;;;;;;9.20;3.13;;;;;;;26.96;27.47;101001.84;5043334;28;20048;-70
2021/06/01 11:17:37;;;;;;;5.68;3.20;;;;;;;26.60;27.37;101001.75;5050669;28;20053;-71
2021/06/01 11:20:06;;;;;;;6.55;3.75;;;;;;;27.01;26.38;101001.25;5029243;28;20072;-70
2021/06/01 11:33:34;;;;;;;4.75;2.63;;;;;;;25.81;25.72;100992.41;5032315;28;20053;-70
2021/06/01 11:36:10;;;;;;;7.65;2.22;;;;;;;25.80;24.38;100988.00;5028519;28;20496;-69
2021/06/01 11:44:19;;;;;;;9.52;2.42;;;;;;;26.27;25.12;100988.59;5034450;28;20075;-71
2021/06/01 11:46:55;;;;;;;6.75;2.50;;;;;;;26.28;25.13;100978.63;5053226;28;20053;-70
2021/06/01 11:52:08;;;;;;;7.60;2.88;;;;;;;25.53;26.90;100968.63;5050177;28;20504;-70
2021/06/01 11:54:36;;;;;;;8.77;2.90;;;;;;;25.54;26.79;100972.19;5029666;28;20045;-69
2021/06/01 11:57:20;;;;;;;10.30;2.42;;;;;;;25.54;26.46;100974.88;5042742;28;20159;-71
2021/06/01 12:02:40;;;;;;;7.95;2.80;;;;;;;25.64;25.56;100962.00;5036483;28;20055;-71
2021/06/01 12:05:24;;;;;;;7.13;2.33;;;;;;;25.50;26.14;100963.59;5049110;28;20061;-72
2021/06/01 12:19:19;;;;;;;15.07;2.65;;;;;;;25.49;25.99;100959.25;4986041;28;20057;-69
2021/06/01 12:21:49;;;;;;;6.22;2.40;;;;;;;24.22;26.47;100958.38;5036336;28;20132;-70
2021/06/01 12:24:21;;;;;;;11.02;2.17;;;;;;;24.67;27.07;100962.31;5038611;28;20048;-70
2021/06/01 12:32:53;;;;;;;10.18;2.85;;;;;;;25.11;26.84;100944.81;5027611;28;20731;-71
2021/06/01 13:08:56;;;;;;;3.83;1.50;;;;;;;25.39;23.15;100929.81;5026887;28;20416;-66
2021/06/01 13:19:35;;;;;;;2.92;1.60;;;;;;;24.85;23.63;100931.63;5027831;28;20043;-65
2021/06/01 13:31:24;;;;;;;3.88;1.40;;;;;;;25.11;21.06;100932.19;5012947;28;20045;-67
2021/06/01 13:39:12;;;;;;;8.55;1.65;;;;;;;24.57;22.38;100932.09;5028239;28;20057;-66